Salt Lake City International Airport
KSLC : now visible

Airfield :











YOU CAN JOIN US ON...

 
LOGIN :

Register | Disclaimer

   EN    FR    IT 

 









Legend :    VFR   Marginal VFR   IFR   Intensive IFR   Very Intensive IFR
Visi :
Ceiling :
>= 8 km
>= 3000ft
5 to 8 km
1000 to 3000 ft
1500m to 5 km
500 to 1000 ft
800 to 1500m
200 to 500 ft
< 800m
< 200 ft
Symbols :   Thunderstorms  Fog  Heavy snow  Heavy precipitations  Wind > 20 kt






- Airport Elevation : 4227 ft
- IATA code : SLC


KSLC - Salt Lake City International

CURRENT METAR :
  • 100554Z 13003KT 10SM SCT043 09/03 A3008 RMK AO2 SLP158 60000 T00940033 10128 20094 51009

EXPIRED METARs :
  • 100454Z 12006KT 10SM SCT045 SCT180 10/03 A3008 RMK AO2 SLP158 T01000033
  • 100354Z 19006KT 10SM FEW100 FEW160 SCT180 11/03 A3007 RMK AO2 SLP157 T01060033

TAF KSLC
Valid from the 10 at 06:00 until the 11 at 12:00 UTC


100520Z 1006/1112 11006KT P6SM BKN060
FM100800 16006KT P6SM SCT060 SCT120
FM101800 32006KT P6SM FEW120
FM110300 16007KT P6SM FEW120



MET'MAP, your aeronautical weather chart ! - Copyright ORBIFLY December 2007 - Disclaimer

ORBIFLY MET'MAP TEAM :

Programming & Development : Alexandra Zaïnal
Concept & original design : Baudouin d'Aumeries
Assistance for programming : Marc-Olivier Méhu
Technical & hardware support : Manuel Goepfert

Contact : metmap@orbifly.com




SOURCES & CREDITS :

   NOAA       Earth
Advisory